sensor_id;sensor_type;location;lat;lon;timestamp;temperature;humidity
68648;SHT31;55632;51.962;16.116;2023-05-10T00:03:50;10.44;57.17
68648;SHT31;55632;51.962;16.116;2023-05-10T00:08:53;10.40;57.22
68648;SHT31;55632;51.962;16.116;2023-05-10T00:13:54;10.33;57.47
68648;SHT31;55632;51.962;16.116;2023-05-10T00:18:54;10.27;57.65
68648;SHT31;55632;51.962;16.116;2023-05-10T00:23:55;10.20;57.90
68648;SHT31;55632;51.962;16.116;2023-05-10T00:28:56;10.14;57.99
68648;SHT31;55632;51.962;16.116;2023-05-10T00:33:57;10.08;58.28
68648;SHT31;55632;51.962;16.116;2023-05-10T00:38:58;10.05;58.33
68648;SHT31;55632;51.962;16.116;2023-05-10T00:43:59;9.99;58.56
68648;SHT31;55632;51.962;16.116;2023-05-10T00:49:01;9.96;58.77
68648;SHT31;55632;51.962;16.116;2023-05-10T00:54:03;9.91;58.87
68648;SHT31;55632;51.962;16.116;2023-05-10T00:59:06;9.85;58.98
68648;SHT31;55632;51.962;16.116;2023-05-10T01:04:07;9.81;59.11
68648;SHT31;55632;51.962;16.116;2023-05-10T01:09:10;9.75;59.24
68648;SHT31;55632;51.962;16.116;2023-05-10T01:14:12;9.71;59.51
68648;SHT31;55632;51.962;16.116;2023-05-10T01:19:21;9.64;59.60
68648;SHT31;55632;51.962;16.116;2023-05-10T01:35:23;9.52;60.14
68648;SHT31;55632;51.962;16.116;2023-05-10T01:40:36;9.47;60.34
68648;SHT31;55632;51.962;16.116;2023-05-10T01:46:03;9.40;60.58
68648;SHT31;55632;51.962;16.116;2023-05-10T01:51:11;9.37;60.70
68648;SHT31;55632;51.962;16.116;2023-05-10T01:56:15;9.30;60.89
68648;SHT31;55632;51.962;16.116;2023-05-10T02:01:19;9.29;61.12
68648;SHT31;55632;51.962;16.116;2023-05-10T02:06:22;9.23;61.31
68648;SHT31;55632;51.962;16.116;2023-05-10T02:11:24;9.22;61.44
68648;SHT31;55632;51.962;16.116;2023-05-10T02:16:26;9.16;61.72
68648;SHT31;55632;51.962;16.116;2023-05-10T02:21:28;9.11;61.98
68648;SHT31;55632;51.962;16.116;2023-05-10T02:26:31;9.04;62.23
68648;SHT31;55632;51.962;16.116;2023-05-10T02:31:34;8.98;62.41
68648;SHT31;55632;51.962;16.116;2023-05-10T02:36:36;8.92;62.57
68648;SHT31;55632;51.962;16.116;2023-05-10T02:41:40;8.87;62.78
68648;SHT31;55632;51.962;16.116;2023-05-10T02:46:41;8.81;63.28
68648;SHT31;55632;51.962;16.116;2023-05-10T02:51:59;8.75;63.56
68648;SHT31;55632;51.962;16.116;2023-05-10T02:57:04;8.67;63.65
68648;SHT31;55632;51.962;16.116;2023-05-10T03:02:06;8.56;63.98
68648;SHT31;55632;51.962;16.116;2023-05-10T03:07:07;8.50;64.37
68648;SHT31;55632;51.962;16.116;2023-05-10T03:12:24;8.47;64.70
68648;SHT31;55632;51.962;16.116;2023-05-10T03:22:55;8.42;65.25
68648;SHT31;55632;51.962;16.116;2023-05-10T03:27:56;8.39;65.37
68648;SHT31;55632;51.962;16.116;2023-05-10T03:33:04;8.39;65.48
68648;SHT31;55632;51.962;16.116;2023-05-10T03:38:06;8.36;65.69
68648;SHT31;55632;51.962;16.116;2023-05-10T03:43:07;8.40;65.89
68648;SHT31;55632;51.962;16.116;2023-05-10T03:48:07;8.43;65.96
68648;SHT31;55632;51.962;16.116;2023-05-10T03:53:08;8.72;66.05
68648;SHT31;55632;51.962;16.116;2023-05-10T03:58:12;9.18;65.53
68648;SHT31;55632;51.962;16.116;2023-05-10T04:03:14;9.59;64.79
68648;SHT31;55632;51.962;16.116;2023-05-10T04:08:15;9.93;63.98
68648;SHT31;55632;51.962;16.116;2023-05-10T04:13:17;10.27;63.26
68648;SHT31;55632;51.962;16.116;2023-05-10T04:18:21;10.58;62.59
68648;SHT31;55632;51.962;16.116;2023-05-10T04:23:22;10.88;61.88
68648;SHT31;55632;51.962;16.116;2023-05-10T04:28:23;11.17;61.21
68648;SHT31;55632;51.962;16.116;2023-05-10T04:33:23;11.42;60.82
68648;SHT31;55632;51.962;16.116;2023-05-10T04:38:24;11.68;60.09
68648;SHT31;55632;51.962;16.116;2023-05-10T04:43:31;11.87;59.34
68648;SHT31;55632;51.962;16.116;2023-05-10T04:48:31;12.12;58.75
68648;SHT31;55632;51.962;16.116;2023-05-10T04:53:32;12.34;58.11
68648;SHT31;55632;51.962;16.116;2023-05-10T04:58:33;12.45;57.32
68648;SHT31;55632;51.962;16.116;2023-05-10T05:03:34;12.59;56.86
68648;SHT31;55632;51.962;16.116;2023-05-10T05:08:35;12.66;56.44
68648;SHT31;55632;51.962;16.116;2023-05-10T05:13:35;12.82;55.94
68648;SHT31;55632;51.962;16.116;2023-05-10T05:18:36;12.90;55.33
68648;SHT31;55632;51.962;16.116;2023-05-10T05:23:37;13.03;55.14
68648;SHT31;55632;51.962;16.116;2023-05-10T05:28:38;13.23;55.04
68648;SHT31;55632;51.962;16.116;2023-05-10T05:33:41;13.34;54.73
68648;SHT31;55632;51.962;16.116;2023-05-10T05:38:42;13.42;54.21
68648;SHT31;55632;51.962;16.116;2023-05-10T05:43:43;13.57;54.08
68648;SHT31;55632;51.962;16.116;2023-05-10T05:48:44;13.70;53.68
68648;SHT31;55632;51.962;16.116;2023-05-10T05:53:45;13.83;53.40
68648;SHT31;55632;51.962;16.116;2023-05-10T05:58:46;14.01;53.39
68648;SHT31;55632;51.962;16.116;2023-05-10T06:03:48;14.16;52.96
68648;SHT31;55632;51.962;16.116;2023-05-10T06:08:48;14.29;52.50
68648;SHT31;55632;51.962;16.116;2023-05-10T06:13:49;14.42;52.15
68648;SHT31;55632;51.962;16.116;2023-05-10T06:18:50;14.63;52.72
68648;SHT31;55632;51.962;16.116;2023-05-10T06:23:54;14.80;51.50
68648;SHT31;55632;51.962;16.116;2023-05-10T06:28:55;14.97;51.08
68648;SHT31;55632;51.962;16.116;2023-05-10T06:33:56;15.17;51.49
68648;SHT31;55632;51.962;16.116;2023-05-10T06:38:57;15.41;51.73
68648;SHT31;55632;51.962;16.116;2023-05-10T06:43:57;15.62;50.85
68648;SHT31;55632;51.962;16.116;2023-05-10T06:48:58;15.80;51.41
68648;SHT31;55632;51.962;16.116;2023-05-10T06:54:02;16.05;50.84
68648;SHT31;55632;51.962;16.116;2023-05-10T06:59:03;16.29;50.33
68648;SHT31;55632;51.962;16.116;2023-05-10T07:04:06;16.48;49.61
68648;SHT31;55632;51.962;16.116;2023-05-10T07:09:11;16.62;49.59
68648;SHT31;55632;51.962;16.116;2023-05-10T07:14:14;16.80;49.25
68648;SHT31;55632;51.962;16.116;2023-05-10T07:19:15;16.95;49.16
68648;SHT31;55632;51.962;16.116;2023-05-10T07:24:18;17.11;48.82
68648;SHT31;55632;51.962;16.116;2023-05-10T07:29:19;17.26;48.69
68648;SHT31;55632;51.962;16.116;2023-05-10T07:34:20;17.36;47.42
68648;SHT31;55632;51.962;16.116;2023-05-10T07:39:21;17.51;47.70
68648;SHT31;55632;51.962;16.116;2023-05-10T07:44:22;17.70;47.12
68648;SHT31;55632;51.962;16.116;2023-05-10T07:49:22;17.71;47.12
68648;SHT31;55632;51.962;16.116;2023-05-10T07:54:26;17.81;46.63
68648;SHT31;55632;51.962;16.116;2023-05-10T07:59:27;17.94;47.32
68648;SHT31;55632;51.962;16.116;2023-05-10T08:04:31;18.08;46.43
68648;SHT31;55632;51.962;16.116;2023-05-10T08:09:35;18.28;46.52
68648;SHT31;55632;51.962;16.116;2023-05-10T08:14:38;18.39;45.79
68648;SHT31;55632;51.962;16.116;2023-05-10T08:19:39;18.49;45.51
68648;SHT31;55632;51.962;16.116;2023-05-10T08:24:40;18.60;44.61
68648;SHT31;55632;51.962;16.116;2023-05-10T08:29:45;18.70;44.92
68648;SHT31;55632;51.962;16.116;2023-05-10T08:34:45;18.80;45.01
68648;SHT31;55632;51.962;16.116;2023-05-10T08:39:46;18.94;45.62
68648;SHT31;55632;51.962;16.116;2023-05-10T08:44:48;19.02;43.50
68648;SHT31;55632;51.962;16.116;2023-05-10T08:49:50;19.05;43.95
68648;SHT31;55632;51.962;16.116;2023-05-10T08:54:55;19.14;43.58
68648;SHT31;55632;51.962;16.116;2023-05-10T08:59:55;19.25;44.52
68648;SHT31;55632;51.962;16.116;2023-05-10T09:04:59;19.36;44.45
68648;SHT31;55632;51.962;16.116;2023-05-10T09:10:01;19.47;44.99
68648;SHT31;55632;51.962;16.116;2023-05-10T09:15:02;19.60;44.97
68648;SHT31;55632;51.962;16.116;2023-05-10T09:20:04;19.66;43.24
68648;SHT31;55632;51.962;16.116;2023-05-10T09:25:11;19.70;43.07
68648;SHT31;55632;51.962;16.116;2023-05-10T09:30:34;19.81;43.82
68648;SHT31;55632;51.962;16.116;2023-05-10T09:35:35;19.85;44.34
68648;SHT31;55632;51.962;16.116;2023-05-10T09:40:37;19.92;43.58
68648;SHT31;55632;51.962;16.116;2023-05-10T09:45:38;20.01;43.33
68648;SHT31;55632;51.962;16.116;2023-05-10T09:50:39;20.08;43.53
68648;SHT31;55632;51.962;16.116;2023-05-10T09:55:42;20.18;44.12
68648;SHT31;55632;51.962;16.116;2023-05-10T10:00:46;20.33;43.87
68648;SHT31;55632;51.962;16.116;2023-05-10T10:05:55;20.36;44.04
68648;SHT31;55632;51.962;16.116;2023-05-10T10:10:56;20.44;43.65
68648;SHT31;55632;51.962;16.116;2023-05-10T10:15:57;20.20;42.75
68648;SHT31;55632;51.962;16.116;2023-05-10T10:20:58;20.23;43.15
68648;SHT31;55632;51.962;16.116;2023-05-10T10:26:00;20.23;43.42
68648;SHT31;55632;51.962;16.116;2023-05-10T10:36:40;20.40;44.05
68648;SHT31;55632;51.962;16.116;2023-05-10T10:41:55;20.37;42.57
68648;SHT31;55632;51.962;16.116;2023-05-10T10:52:14;20.61;44.19
68648;SHT31;55632;51.962;16.116;2023-05-10T10:57:19;20.85;42.79
68648;SHT31;55632;51.962;16.116;2023-05-10T11:02:43;20.98;43.78
68648;SHT31;55632;51.962;16.116;2023-05-10T11:07:58;21.06;42.68
68648;SHT31;55632;51.962;16.116;2023-05-10T11:13:04;21.00;41.12
68648;SHT31;55632;51.962;16.116;2023-05-10T11:18:27;20.92;42.01
68648;SHT31;55632;51.962;16.116;2023-05-10T11:23:33;21.05;42.11
68648;SHT31;55632;51.962;16.116;2023-05-10T11:28:48;21.02;41.11
68648;SHT31;55632;51.962;16.116;2023-05-10T11:33:51;21.02;40.64
68648;SHT31;55632;51.962;16.116;2023-05-10T11:38:56;20.88;40.69
68648;SHT31;55632;51.962;16.116;2023-05-10T11:43:58;20.67;41.44
68648;SHT31;55632;51.962;16.116;2023-05-10T11:49:00;20.71;40.64
68648;SHT31;55632;51.962;16.116;2023-05-10T11:54:06;20.70;42.23
68648;SHT31;55632;51.962;16.116;2023-05-10T11:59:08;20.84;41.33
68648;SHT31;55632;51.962;16.116;2023-05-10T12:04:09;20.87;41.08
68648;SHT31;55632;51.962;16.116;2023-05-10T12:09:13;20.80;40.68
68648;SHT31;55632;51.962;16.116;2023-05-10T12:14:20;20.78;40.51
68648;SHT31;55632;51.962;16.116;2023-05-10T12:19:25;20.95;40.46
68648;SHT31;55632;51.962;16.116;2023-05-10T12:24:26;21.13;42.31
68648;SHT31;55632;51.962;16.116;2023-05-10T12:29:30;21.13;40.21
68648;SHT31;55632;51.962;16.116;2023-05-10T12:34:32;21.27;39.94
68648;SHT31;55632;51.962;16.116;2023-05-10T12:39:43;21.19;38.92
68648;SHT31;55632;51.962;16.116;2023-05-10T12:44:44;21.05;40.49
68648;SHT31;55632;51.962;16.116;2023-05-10T12:49:45;20.89;39.97
68648;SHT31;55632;51.962;16.116;2023-05-10T12:54:46;20.74;40.12
68648;SHT31;55632;51.962;16.116;2023-05-10T12:59:49;20.58;41.09
68648;SHT31;55632;51.962;16.116;2023-05-10T13:04:51;20.46;41.49
68648;SHT31;55632;51.962;16.116;2023-05-10T13:09:52;20.36;41.44
68648;SHT31;55632;51.962;16.116;2023-05-10T13:14:52;20.37;41.74
68648;SHT31;55632;51.962;16.116;2023-05-10T13:19:53;20.60;41.12
68648;SHT31;55632;51.962;16.116;2023-05-10T13:24:54;20.80;40.72
68648;SHT31;55632;51.962;16.116;2023-05-10T13:29:55;20.95;41.35
68648;SHT31;55632;51.962;16.116;2023-05-10T13:34:56;21.03;41.41
68648;SHT31;55632;51.962;16.116;2023-05-10T13:39:57;21.19;40.59
68648;SHT31;55632;51.962;16.116;2023-05-10T13:45:01;21.05;41.25
68648;SHT31;55632;51.962;16.116;2023-05-10T13:50:05;21.06;43.03
68648;SHT31;55632;51.962;16.116;2023-05-10T13:55:08;20.94;41.73
68648;SHT31;55632;51.962;16.116;2023-05-10T14:00:10;20.89;42.94
68648;SHT31;55632;51.962;16.116;2023-05-10T14:05:11;20.80;41.44
68648;SHT31;55632;51.962;16.116;2023-05-10T14:10:12;20.70;41.40
68648;SHT31;55632;51.962;16.116;2023-05-10T14:15:15;20.70;41.37
68648;SHT31;55632;51.962;16.116;2023-05-10T14:20:16;20.75;41.15
68648;SHT31;55632;51.962;16.116;2023-05-10T14:25:20;20.65;42.12
68648;SHT31;55632;51.962;16.116;2023-05-10T14:30:21;20.55;42.18
68648;SHT31;55632;51.962;16.116;2023-05-10T14:35:21;20.46;42.01
68648;SHT31;55632;51.962;16.116;2023-05-10T14:40:22;20.44;42.40
68648;SHT31;55632;51.962;16.116;2023-05-10T14:45:26;20.48;42.01
68648;SHT31;55632;51.962;16.116;2023-05-10T14:50:30;20.44;42.22
68648;SHT31;55632;51.962;16.116;2023-05-10T14:55:31;20.51;42.96
68648;SHT31;55632;51.962;16.116;2023-05-10T15:00:33;20.63;42.93
68648;SHT31;55632;51.962;16.116;2023-05-10T15:05:34;20.88;42.73
68648;SHT31;55632;51.962;16.116;2023-05-10T15:10:35;21.18;43.50
68648;SHT31;55632;51.962;16.116;2023-05-10T15:15:42;21.27;42.47
68648;SHT31;55632;51.962;16.116;2023-05-10T15:20:43;21.33;42.94
68648;SHT31;55632;51.962;16.116;2023-05-10T15:25:44;21.09;42.22
68648;SHT31;55632;51.962;16.116;2023-05-10T15:30:45;20.94;43.12
68648;SHT31;55632;51.962;16.116;2023-05-10T15:35:46;20.94;43.33
68648;SHT31;55632;51.962;16.116;2023-05-10T15:40:46;20.84;43.68
68648;SHT31;55632;51.962;16.116;2023-05-10T15:45:50;20.77;43.49
68648;SHT31;55632;51.962;16.116;2023-05-10T15:50:51;20.70;43.75
68648;SHT31;55632;51.962;16.116;2023-05-10T15:55:51;20.78;44.15
68648;SHT31;55632;51.962;16.116;2023-05-10T16:00:52;20.95;43.19
68648;SHT31;55632;51.962;16.116;2023-05-10T16:05:53;21.02;42.87
68648;SHT31;55632;51.962;16.116;2023-05-10T16:10:54;20.99;42.47
68648;SHT31;55632;51.962;16.116;2023-05-10T16:15:55;20.99;42.12
68648;SHT31;55632;51.962;16.116;2023-05-10T16:20:57;21.02;42.75
68648;SHT31;55632;51.962;16.116;2023-05-10T16:25:58;20.98;42.65
68648;SHT31;55632;51.962;16.116;2023-05-10T16:30:59;20.89;42.39
68648;SHT31;55632;51.962;16.116;2023-05-10T16:36:00;20.87;43.28
68648;SHT31;55632;51.962;16.116;2023-05-10T16:41:02;20.85;43.69
68648;SHT31;55632;51.962;16.116;2023-05-10T16:46:09;20.71;44.06
68648;SHT31;55632;51.962;16.116;2023-05-10T16:51:10;20.54;44.18
68648;SHT31;55632;51.962;16.116;2023-05-10T16:56:16;20.34;44.38
68648;SHT31;55632;51.962;16.116;2023-05-10T17:01:26;20.18;45.18
68648;SHT31;55632;51.962;16.116;2023-05-10T17:06:37;20.05;45.12
68648;SHT31;55632;51.962;16.116;2023-05-10T17:11:38;19.89;44.78
68648;SHT31;55632;51.962;16.116;2023-05-10T17:16:42;19.75;45.15
68648;SHT31;55632;51.962;16.116;2023-05-10T17:21:46;19.66;45.88
68648;SHT31;55632;51.962;16.116;2023-05-10T17:26:50;19.54;46.47
68648;SHT31;55632;51.962;16.116;2023-05-10T17:31:54;19.40;46.51
68648;SHT31;55632;51.962;16.116;2023-05-10T17:36:56;19.27;46.69
68648;SHT31;55632;51.962;16.116;2023-05-10T17:41:57;19.15;47.32
68648;SHT31;55632;51.962;16.116;2023-05-10T17:47:02;18.99;47.57
68648;SHT31;55632;51.962;16.116;2023-05-10T17:52:03;18.84;47.61
68648;SHT31;55632;51.962;16.116;2023-05-10T17:57:04;18.71;47.88
68648;SHT31;55632;51.962;16.116;2023-05-10T18:02:05;18.59;48.10
68648;SHT31;55632;51.962;16.116;2023-05-10T18:07:10;18.47;48.31
68648;SHT31;55632;51.962;16.116;2023-05-10T18:12:14;18.30;48.57
68648;SHT31;55632;51.962;16.116;2023-05-10T18:17:15;18.16;48.83
68648;SHT31;55632;51.962;16.116;2023-05-10T18:22:15;18.05;48.75
68648;SHT31;55632;51.962;16.116;2023-05-10T18:27:16;17.93;48.88
68648;SHT31;55632;51.962;16.116;2023-05-10T18:32:21;17.81;49.02
68648;SHT31;55632;51.962;16.116;2023-05-10T18:37:22;17.73;49.26
68648;SHT31;55632;51.962;16.116;2023-05-10T18:42:27;17.56;49.67
68648;SHT31;55632;51.962;16.116;2023-05-10T18:47:28;17.43;49.94
68648;SHT31;55632;51.962;16.116;2023-05-10T18:52:29;17.29;50.23
68648;SHT31;55632;51.962;16.116;2023-05-10T18:57:30;17.14;50.53
68648;SHT31;55632;51.962;16.116;2023-05-10T19:02:31;17.00;50.86
68648;SHT31;55632;51.962;16.116;2023-05-10T19:07:32;16.85;51.33
68648;SHT31;55632;51.962;16.116;2023-05-10T19:12:33;16.69;51.89
68648;SHT31;55632;51.962;16.116;2023-05-10T19:17:34;16.48;52.51
68648;SHT31;55632;51.962;16.116;2023-05-10T19:22:36;16.24;53.07
68648;SHT31;55632;51.962;16.116;2023-05-10T19:27:38;16.05;53.44
68648;SHT31;55632;51.962;16.116;2023-05-10T19:32:39;15.91;53.73
68648;SHT31;55632;51.962;16.116;2023-05-10T19:37:45;15.82;54.06
68648;SHT31;55632;51.962;16.116;2023-05-10T19:42:50;15.70;54.26
68648;SHT31;55632;51.962;16.116;2023-05-10T19:47:51;15.63;54.53
68648;SHT31;55632;51.962;16.116;2023-05-10T19:52:52;15.52;55.04
68648;SHT31;55632;51.962;16.116;2023-05-10T19:57:54;15.36;55.60
68648;SHT31;55632;51.962;16.116;2023-05-10T20:02:55;15.20;56.11
68648;SHT31;55632;51.962;16.116;2023-05-10T20:07:56;15.03;56.52
68648;SHT31;55632;51.962;16.116;2023-05-10T20:12:57;14.89;56.78
68648;SHT31;55632;51.962;16.116;2023-05-10T20:18:00;14.76;57.26
68648;SHT31;55632;51.962;16.116;2023-05-10T20:23:02;14.69;57.68
68648;SHT31;55632;51.962;16.116;2023-05-10T20:28:03;14.65;57.82
68648;SHT31;55632;51.962;16.116;2023-05-10T20:33:05;14.65;57.87
68648;SHT31;55632;51.962;16.116;2023-05-10T20:38:08;14.59;58.01
68648;SHT31;55632;51.962;16.116;2023-05-10T20:43:09;14.58;58.12
68648;SHT31;55632;51.962;16.116;2023-05-10T20:48:10;14.55;58.35
68648;SHT31;55632;51.962;16.116;2023-05-10T20:53:11;14.51;58.42
68648;SHT31;55632;51.962;16.116;2023-05-10T20:58:13;14.49;58.42
68648;SHT31;55632;51.962;16.116;2023-05-10T21:03:15;14.46;58.52
68648;SHT31;55632;51.962;16.116;2023-05-10T21:08:16;14.45;58.47
68648;SHT31;55632;51.962;16.116;2023-05-10T21:13:17;14.41;58.42
68648;SHT31;55632;51.962;16.116;2023-05-10T21:18:20;14.35;58.24
68648;SHT31;55632;51.962;16.116;2023-05-10T21:23:21;14.31;58.09
68648;SHT31;55632;51.962;16.116;2023-05-10T21:28:22;14.29;57.85
68648;SHT31;55632;51.962;16.116;2023-05-10T21:33:23;14.25;57.62
68648;SHT31;55632;51.962;16.116;2023-05-10T21:38:23;14.21;57.36
68648;SHT31;55632;51.962;16.116;2023-05-10T21:43:24;14.20;57.17
68648;SHT31;55632;51.962;16.116;2023-05-10T21:48:28;14.14;57.03
68648;SHT31;55632;51.962;16.116;2023-05-10T21:53:29;14.10;57.02
68648;SHT31;55632;51.962;16.116;2023-05-10T21:58:30;14.03;57.01
68648;SHT31;55632;51.962;16.116;2023-05-10T22:03:31;13.99;57.10
68648;SHT31;55632;51.962;16.116;2023-05-10T22:08:31;13.93;57.17
68648;SHT31;55632;51.962;16.116;2023-05-10T22:13:32;13.90;57.20
68648;SHT31;55632;51.962;16.116;2023-05-10T22:18:37;13.87;57.32
68648;SHT31;55632;51.962;16.116;2023-05-10T22:23:37;13.83;57.46
68648;SHT31;55632;51.962;16.116;2023-05-10T22:28:38;13.80;57.56
68648;SHT31;55632;51.962;16.116;2023-05-10T22:33:42;13.77;57.70
68648;SHT31;55632;51.962;16.116;2023-05-10T22:38:43;13.73;57.71
68648;SHT31;55632;51.962;16.116;2023-05-10T22:43:43;13.75;57.73
68648;SHT31;55632;51.962;16.116;2023-05-10T22:48:47;13.70;57.70
68648;SHT31;55632;51.962;16.116;2023-05-10T22:53:54;13.68;57.63
68648;SHT31;55632;51.962;16.116;2023-05-10T22:58:57;13.62;57.68
68648;SHT31;55632;51.962;16.116;2023-05-10T23:03:59;13.61;57.59
68648;SHT31;55632;51.962;16.116;2023-05-10T23:09:05;13.57;57.59
68648;SHT31;55632;51.962;16.116;2023-05-10T23:14:09;13.52;57.62
68648;SHT31;55632;51.962;16.116;2023-05-10T23:19:10;13.48;57.79
68648;SHT31;55632;51.962;16.116;2023-05-10T23:24:11;13.38;57.88
68648;SHT31;55632;51.962;16.116;2023-05-10T23:29:14;13.31;58.18
68648;SHT31;55632;51.962;16.116;2023-05-10T23:34:17;13.15;58.44
68648;SHT31;55632;51.962;16.116;2023-05-10T23:39:18;13.08;58.68
68648;SHT31;55632;51.962;16.116;2023-05-10T23:44:19;13.00;58.79
68648;SHT31;55632;51.962;16.116;2023-05-10T23:49:20;12.96;58.88
68648;SHT31;55632;51.962;16.116;2023-05-10T23:54:27;12.90;59.03
68648;SHT31;55632;51.962;16.116;2023-05-10T23:59:30;12.85;59.18
